Time;durP1;ratioP1;P1;durP2;ratioP2;P2;SDS_P1;SDS_P2;PMS_P1;PMS_P2;Temp;Humidity;BMP_temperature;BMP_pressure;BME280_temperature;BME280_humidity;BME280_pressure;Samples;Min_cycle;Max_cycle;Signal;HPM_P1;HPM_P2
2022/06/25 00:01:30;;;;;;;836.60;782.40;;;15.80;99.90;;;;;;4993055;28;20454;-83
2022/06/25 00:03:57;;;;;;;841.20;785.77;;;15.80;99.90;;;;;;4992386;28;20491;-83
2022/06/25 00:06:23;;;;;;;848.80;791.10;;;15.70;99.90;;;;;;4992290;28;20464;-83
2022/06/25 00:08:51;;;;;;;835.23;778.00;;;15.90;99.90;;;;;;4992338;28;20461;-83
2022/06/25 00:14:06;;;;;;;837.90;782.77;;;16.00;99.90;;;;;;4997757;28;20533;-83
2022/06/25 00:16:35;;;;;;;844.37;788.97;;;16.00;99.90;;;;;;4996437;28;20463;-83
2022/06/25 00:19:03;;;;;;;833.80;777.73;;;16.00;99.90;;;;;;4996695;28;20815;-83
2022/06/25 00:21:31;;;;;;;830.60;775.00;;;16.20;99.90;;;;;;4996559;28;20465;-83
2022/06/25 00:23:57;;;;;;;832.30;778.30;;;16.10;99.90;;;;;;4997515;28;20483;-83
2022/06/25 00:26:24;;;;;;;821.57;769.07;;;16.20;99.90;;;;;;4997237;28;20483;-83
2022/06/25 00:28:51;;;;;;;805.30;752.90;;;16.20;99.90;;;;;;4997700;28;20511;-83
2022/06/25 00:31:18;;;;;;;805.40;754.00;;;16.30;99.90;;;;;;4998593;28;20455;-83
2022/06/25 00:33:46;;;;;;;793.77;745.97;;;16.30;99.90;;;;;;4996779;28;20484;-83
2022/06/25 00:36:12;;;;;;;805.03;756.97;;;16.10;99.90;;;;;;4997692;28;20456;-83
2022/06/25 00:38:39;;;;;;;828.70;777.90;;;15.90;99.90;;;;;;4995970;28;20466;-83
2022/06/25 00:41:06;;;;;;;854.70;799.30;;;15.90;99.90;;;;;;4997103;28;20481;-83
2022/06/25 00:43:37;;;;;;;865.57;807.07;;;15.90;99.90;;;;;;4997422;28;20513;-83
2022/06/25 00:46:04;;;;;;;862.97;804.17;;;16.00;99.90;;;;;;4997754;28;20455;-83
2022/06/25 00:48:30;;;;;;;858.80;798.97;;;15.90;99.90;;;;;;4995887;28;20495;-82
2022/06/25 00:50:59;;;;;;;858.80;799.10;;;15.90;99.90;;;;;;4996575;28;20462;-83
2022/06/25 00:53:32;;;;;;;868.57;808.40;;;15.90;99.90;;;;;;4997899;28;20483;-82
2022/06/25 00:56:00;;;;;;;857.73;799.77;;;15.90;99.90;;;;;;4996545;28;20465;-83
2022/06/25 00:58:31;;;;;;;863.03;805.30;;;15.80;99.90;;;;;;4994488;28;20959;-83
2022/06/25 01:00:58;;;;;;;862.90;804.00;;;15.70;99.90;;;;;;4995651;28;20462;-83
2022/06/25 01:03:26;;;;;;;870.90;812.00;;;15.60;99.90;;;;;;4995275;28;20485;-83
2022/06/25 01:05:52;;;;;;;878.47;817.80;;;15.50;99.90;;;;;;4995934;28;20478;-82
2022/06/25 01:08:21;;;;;;;878.03;816.63;;;15.60;99.90;;;;;;4995035;28;20847;-82
2022/06/25 01:10:48;;;;;;;881.70;819.70;;;15.50;99.90;;;;;;4995276;28;20462;-83
2022/06/25 01:13:14;;;;;;;883.67;820.47;;;15.40;99.90;;;;;;4994965;28;20515;-83
2022/06/25 01:15:41;;;;;;;885.40;820.70;;;15.30;99.90;;;;;;4994897;28;20459;-83
2022/06/25 01:18:08;;;;;;;897.37;831.30;;;15.30;99.90;;;;;;4994816;28;20450;-82
2022/06/25 01:20:35;;;;;;;909.20;841.23;;;15.20;99.90;;;;;;4995787;28;20506;-83
2022/06/25 01:23:03;;;;;;;901.20;832.43;;;15.20;99.90;;;;;;4994492;28;20570;-83
2022/06/25 01:25:34;;;;;;;910.83;840.90;;;15.10;99.90;;;;;;4995460;28;20986;-83
2022/06/25 01:28:01;;;;;;;918.20;847.80;;;15.10;99.90;;;;;;4995472;28;20478;-83
2022/06/25 01:30:28;;;;;;;921.13;847.93;;;15.20;99.90;;;;;;4993509;28;20461;-83
2022/06/25 01:32:55;;;;;;;928.23;853.53;;;14.90;99.90;;;;;;4995487;28;20851;-83
2022/06/25 01:35:21;;;;;;;931.40;855.90;;;15.00;99.90;;;;;;4994719;28;20481;-83
2022/06/25 01:37:48;;;;;;;926.10;849.60;;;14.90;99.90;;;;;;4994429;28;20457;-83
2022/06/25 01:40:16;;;;;;;924.07;844.97;;;14.90;99.90;;;;;;4993571;28;20469;-83
2022/06/25 01:43:01;;;;;;;910.83;833.83;;;14.80;99.90;;;;;;4994291;28;20497;-82
2022/06/25 01:45:30;;;;;;;912.80;833.90;;;14.90;99.90;;;;;;4994558;28;20458;-83
2022/06/25 01:47:57;;;;;;;908.63;830.47;;;14.90;99.90;;;;;;4993912;28;20474;-83
2022/06/25 01:50:24;;;;;;;909.60;829.73;;;14.70;99.90;;;;;;4993652;28;20465;-83
2022/06/25 01:52:51;;;;;;;912.57;835.70;;;14.80;99.90;;;;;;4993709;28;20474;-83
2022/06/25 01:55:20;;;;;;;906.93;827.23;;;14.80;99.90;;;;;;4994266;28;20454;-83
2022/06/25 01:57:48;;;;;;;900.43;819.73;;;14.80;99.90;;;;;;4994455;28;20457;-83
2022/06/25 02:00:17;;;;;;;888.20;807.20;;;14.80;99.90;;;;;;4993546;28;20462;-83
2022/06/25 02:02:45;;;;;;;916.13;834.20;;;14.80;99.90;;;;;;4994015;28;20485;-83
2022/06/25 02:05:13;;;;;;;906.77;824.90;;;14.80;99.90;;;;;;4993914;28;20481;-83
2022/06/25 02:07:40;;;;;;;898.43;815.70;;;14.80;99.90;;;;;;4994191;28;20504;-83
2022/06/25 02:10:08;;;;;;;889.80;807.40;;;14.70;99.90;;;;;;4993681;28;20457;-83
2022/06/25 02:12:37;;;;;;;906.80;822.73;;;14.70;99.90;;;;;;4993825;28;20485;-83
2022/06/25 02:15:04;;;;;;;919.03;836.30;;;14.60;99.90;;;;;;4993852;28;20458;-83
2022/06/25 02:17:31;;;;;;;913.13;828.73;;;14.60;99.90;;;;;;4993759;28;20458;-83
2022/06/25 02:19:58;;;;;;;901.90;819.53;;;14.50;99.90;;;;;;4992740;28;20454;-83
2022/06/25 02:22:24;;;;;;;911.47;829.30;;;14.50;99.90;;;;;;4993448;28;20458;-83
2022/06/25 02:24:53;;;;;;;919.70;835.97;;;14.40;99.90;;;;;;4993623;28;20476;-82
2022/06/25 02:27:19;;;;;;;908.30;824.10;;;14.40;99.90;;;;;;4993368;28;20504;-83
2022/06/25 02:29:47;;;;;;;912.67;827.70;;;14.40;99.90;;;;;;4992809;28;20454;-83
2022/06/25 02:32:14;;;;;;;921.47;836.20;;;14.50;99.90;;;;;;4993500;28;20461;-83
2022/06/25 02:34:41;;;;;;;920.57;835.80;;;14.50;99.90;;;;;;4993413;28;20489;-83
2022/06/25 02:37:08;;;;;;;918.20;833.40;;;14.40;99.90;;;;;;4993670;28;20854;-83
2022/06/25 02:39:34;;;;;;;909.83;826.43;;;14.50;99.90;;;;;;4992889;28;20449;-83
2022/06/25 02:42:01;;;;;;;915.40;834.43;;;14.50;99.90;;;;;;4993561;28;20465;-82
2022/06/25 02:44:28;;;;;;;904.97;822.90;;;14.40;99.90;;;;;;4994335;28;20868;-83
2022/06/25 02:46:56;;;;;;;908.57;826.90;;;14.30;99.90;;;;;;4993165;28;20809;-83
2022/06/25 02:49:23;;;;;;;912.57;828.80;;;14.30;99.90;;;;;;4993211;28;20485;-83
2022/06/25 02:51:49;;;;;;;921.13;836.23;;;14.20;99.90;;;;;;4993250;28;21003;-83
2022/06/25 02:54:16;;;;;;;913.27;826.17;;;14.10;99.90;;;;;;4994186;28;20488;-83
2022/06/25 02:59:27;;;;;;;916.57;828.70;;;14.30;99.90;;;;;;4993152;28;20528;-83
2022/06/25 03:01:56;;;;;;;915.60;827.47;;;14.30;99.90;;;;;;4993816;28;20457;-83
2022/06/25 03:04:23;;;;;;;916.60;827.40;;;14.30;99.90;;;;;;4993571;28;20490;-83
2022/06/25 03:06:50;;;;;;;925.60;837.00;;;14.40;99.90;;;;;;4993503;28;20460;-83
2022/06/25 03:09:16;;;;;;;938.57;849.40;;;14.20;99.90;;;;;;4993018;28;20857;-83
2022/06/25 03:11:43;;;;;;;930.20;842.40;;;14.30;99.90;;;;;;4993178;28;20455;-83
2022/06/25 03:14:10;;;;;;;926.90;838.20;;;14.30;99.90;;;;;;4993258;28;20482;-82
2022/06/25 03:16:37;;;;;;;921.77;833.47;;;14.30;99.90;;;;;;4993462;28;20458;-82
2022/06/25 03:19:05;;;;;;;917.47;829.60;;;14.40;99.90;;;;;;4992805;28;20966;-83
2022/06/25 03:21:31;;;;;;;906.33;819.60;;;14.50;99.90;;;;;;4993461;28;20458;-83
2022/06/25 03:23:58;;;;;;;912.90;827.30;;;14.50;99.90;;;;;;4993689;28;20474;-83
2022/06/25 03:26:25;;;;;;;917.20;832.00;;;14.50;99.90;;;;;;4993191;28;20458;-83
2022/06/25 03:28:52;;;;;;;908.20;822.90;;;14.50;99.90;;;;;;4992169;28;20845;-83
2022/06/25 03:31:20;;;;;;;900.77;817.70;;;14.40;99.90;;;;;;4993424;28;20455;-83
2022/06/25 03:33:47;;;;;;;897.13;813.03;;;14.40;99.90;;;;;;4993445;28;20506;-83
2022/06/25 03:36:15;;;;;;;880.57;796.60;;;14.30;99.90;;;;;;4993573;28;20461;-83
2022/06/25 03:38:42;;;;;;;887.63;803.47;;;14.30;99.90;;;;;;4992838;28;20453;-83
2022/06/25 03:43:53;;;;;;;877.07;794.47;;;14.40;99.90;;;;;;4993062;28;20494;-83
2022/06/25 03:46:20;;;;;;;872.30;790.63;;;14.40;99.90;;;;;;4994076;28;20834;-83
2022/06/25 03:48:47;;;;;;;874.40;792.23;;;14.30;99.90;;;;;;4996643;28;20485;-83
2022/06/25 03:51:15;;;;;;;866.70;785.13;;;14.40;99.90;;;;;;4997142;28;20469;-83
2022/06/25 03:53:42;;;;;;;881.77;797.40;;;14.40;99.90;;;;;;4996635;28;20481;-84
2022/06/25 03:56:08;;;;;;;882.20;798.20;;;14.50;99.90;;;;;;4996748;28;20577;-83
2022/06/25 03:58:35;;;;;;;880.83;797.30;;;14.50;99.90;;;;;;4996255;28;20462;-83
2022/06/25 04:01:02;;;;;;;869.20;787.30;;;14.60;99.90;;;;;;4996452;28;20460;-83
2022/06/25 04:03:30;;;;;;;871.93;789.60;;;14.60;99.90;;;;;;4996676;28;20486;-83
2022/06/25 04:05:56;;;;;;;876.50;793.67;;;14.70;99.90;;;;;;4996404;28;20457;-83
2022/06/25 04:08:24;;;;;;;862.10;780.63;;;14.70;99.90;;;;;;4994243;28;20477;-82
2022/06/25 04:10:51;;;;;;;863.73;782.43;;;14.70;99.90;;;;;;4996419;28;20461;-83
2022/06/25 04:13:18;;;;;;;860.73;779.57;;;14.80;99.90;;;;;;4996667;28;20853;-82
2022/06/25 04:15:45;;;;;;;855.37;774.13;;;14.90;99.90;;;;;;4996651;28;20827;-84
2022/06/25 04:18:12;;;;;;;853.17;773.27;;;14.90;99.90;;;;;;4994326;28;20454;-83
2022/06/25 04:20:39;;;;;;;859.00;780.10;;;15.00;99.90;;;;;;4996322;28;20517;-83
2022/06/25 04:23:06;;;;;;;852.37;773.40;;;15.10;99.90;;;;;;4996071;28;20506;-83
2022/06/25 04:25:34;;;;;;;856.47;778.47;;;15.20;99.90;;;;;;4996335;28;20509;-84
2022/06/25 04:30:45;;;;;;;856.87;778.97;;;15.40;99.90;;;;;;4996309;28;20577;-84
2022/06/25 04:33:12;;;;;;;869.13;791.10;;;15.40;99.90;;;;;;4995842;28;20871;-83
2022/06/25 04:35:39;;;;;;;856.17;778.67;;;15.50;99.90;;;;;;4996114;28;20455;-83
2022/06/25 04:38:05;;;;;;;859.33;782.43;;;15.50;99.90;;;;;;4996129;28;20473;-82
2022/06/25 04:40:32;;;;;;;855.17;778.40;;;15.60;99.90;;;;;;4995714;28;20458;-83
2022/06/25 04:43:00;;;;;;;857.83;781.43;;;15.70;99.90;;;;;;4995834;28;20497;-83
2022/06/25 04:45:27;;;;;;;865.50;788.30;;;15.80;99.90;;;;;;4995897;28;20459;-82
2022/06/25 04:48:00;;;;;;;859.83;783.63;;;15.90;99.90;;;;;;4995678;28;20466;-82
2022/06/25 04:50:27;;;;;;;854.07;778.40;;;15.90;99.90;;;;;;4995483;28;20462;-83
2022/06/25 04:52:54;;;;;;;863.37;788.70;;;16.00;99.90;;;;;;4995985;28;20480;-82
2022/06/25 04:55:20;;;;;;;859.03;784.77;;;16.10;99.90;;;;;;4995726;28;20929;-83
2022/06/25 04:57:47;;;;;;;851.07;778.70;;;16.30;99.90;;;;;;4994361;28;20458;-83
2022/06/25 05:00:16;;;;;;;851.17;779.83;;;16.30;99.90;;;;;;4994594;28;20463;-84
2022/06/25 05:02:42;;;;;;;859.83;786.90;;;16.40;99.90;;;;;;4995160;28;20997;-84
2022/06/25 05:05:09;;;;;;;856.83;785.70;;;16.60;99.90;;;;;;4995515;28;20491;-84
2022/06/25 05:07:36;;;;;;;851.33;781.70;;;16.70;99.90;;;;;;4995512;28;20454;-83
2022/06/25 05:10:04;;;;;;;826.47;763.40;;;16.80;99.90;;;;;;4995726;28;20489;-83
2022/06/25 05:15:16;;;;;;;795.67;743.90;;;17.20;99.90;;;;;;4996918;28;20800;-84
2022/06/25 05:17:43;;;;;;;782.23;731.40;;;17.20;99.90;;;;;;4993327;28;20456;-84
2022/06/25 05:20:11;;;;;;;672.40;633.40;;;17.40;99.90;;;;;;4994597;28;20974;-84
2022/06/25 05:22:38;;;;;;;423.53;405.17;;;17.80;99.90;;;;;;4995311;28;20511;-85
2022/06/25 05:25:06;;;;;;;121.43;116.30;;;18.10;99.90;;;;;;4995873;28;20467;-85
2022/06/25 05:27:33;;;;;;;40.33;37.67;;;18.50;99.90;;;;;;4994998;28;20504;-83
2022/06/25 05:30:00;;;;;;;15.07;14.23;;;18.70;99.90;;;;;;4993696;28;20484;-85
2022/06/25 05:32:28;;;;;;;7.17;6.47;;;19.10;99.90;;;;;;4994559;28;20460;-85
2022/06/25 05:34:57;;;;;;;6.07;4.30;;;19.40;99.90;;;;;;4994046;28;20465;-85
2022/06/25 05:37:24;;;;;;;6.40;4.47;;;19.60;99.90;;;;;;4993913;28;20461;-85
2022/06/25 05:39:51;;;;;;;6.50;3.73;;;19.90;99.90;;;;;;4992880;28;20461;-86
2022/06/25 05:42:19;;;;;;;7.20;3.53;;;20.20;99.90;;;;;;4994136;28;20454;-84
2022/06/25 05:44:49;;;;;;;8.47;3.30;;;20.40;99.90;;;;;;4992142;28;20550;-84
2022/06/25 05:47:18;;;;;;;7.73;2.77;;;20.60;99.90;;;;;;4991875;28;20462;-84
2022/06/25 05:49:46;;;;;;;8.73;2.90;;;20.80;99.90;;;;;;4992507;28;20478;-84
2022/06/25 05:52:12;;;;;;;7.30;3.23;;;21.00;99.90;;;;;;4993448;28;20460;-84
2022/06/25 05:54:39;;;;;;;4.87;2.80;;;21.20;99.90;;;;;;4991822;28;20453;-84
2022/06/25 05:57:07;;;;;;;5.47;2.40;;;21.30;98.80;;;;;;4992751;28;20460;-84
2022/06/25 05:59:42;;;;;;;8.53;2.90;;;21.40;98.10;;;;;;4993174;28;20906;-85
2022/06/25 06:02:09;;;;;;;6.80;2.83;;;21.70;96.10;;;;;;4992473;28;20825;-84
2022/06/25 06:04:36;;;;;;;4.90;2.47;;;21.70;95.80;;;;;;4992394;28;20479;-84
2022/06/25 06:07:04;;;;;;;6.23;2.60;;;21.90;92.90;;;;;;4993570;28;20457;-85
2022/06/25 06:09:31;;;;;;;4.93;2.30;;;22.00;92.50;;;;;;4991700;28;21024;-83
2022/06/25 06:11:59;;;;;;;5.07;2.47;;;22.10;93.40;;;;;;4992340;28;20536;-84
2022/06/25 06:14:25;;;;;;;6.43;2.27;;;22.20;90.30;;;;;;4993608;28;20474;-84
2022/06/25 06:16:56;;;;;;;5.63;2.53;;;22.30;89.20;;;;;;4992514;28;20450;-83
2022/06/25 06:19:26;;;;;;;6.60;3.10;;;22.50;88.30;;;;;;4991386;28;20516;-84
2022/06/25 06:21:52;;;;;;;6.17;2.27;;;22.50;87.60;;;;;;4993391;28;20433;-85
2022/06/25 06:24:21;;;;;;;8.30;2.57;;;22.70;83.20;;;;;;4992853;28;20523;-84
2022/06/25 06:26:48;;;;;;;7.70;2.53;;;22.90;83.30;;;;;;4991353;28;20471;-85
2022/06/25 06:29:17;;;;;;;7.30;2.40;;;23.10;81.00;;;;;;4992474;28;20477;-85
2022/06/25 06:31:46;;;;;;;5.20;1.93;;;23.20;77.10;;;;;;4993309;28;20454;-85
2022/06/25 06:34:16;;;;;;;4.57;2.07;;;23.20;77.00;;;;;;4991288;28;20707;-84
2022/06/25 06:36:43;;;;;;;8.10;2.03;;;23.10;77.00;;;;;;4993091;28;20519;-84
2022/06/25 06:39:10;;;;;;;5.53;2.43;;;23.20;74.00;;;;;;4992536;28;20946;-84
2022/06/25 06:41:41;;;;;;;7.77;2.03;;;23.00;75.20;;;;;;4991116;28;20465;-84
2022/06/25 06:44:13;;;;;;;7.13;1.80;;;22.80;73.80;;;;;;4990898;28;20529;-85
2022/06/25 06:46:40;;;;;;;10.73;2.20;;;23.20;75.70;;;;;;4992002;28;20492;-85
2022/06/25 06:49:09;;;;;;;7.97;2.23;;;23.30;73.10;;;;;;4989573;28;20484;-84
2022/06/25 06:51:36;;;;;;;7.07;3.03;;;23.40;73.20;;;;;;4991365;28;20458;-85
2022/06/25 06:54:03;;;;;;;5.63;1.97;;;23.60;73.40;;;;;;4991910;28;20474;-85
2022/06/25 06:56:29;;;;;;;11.43;2.60;;;23.50;73.30;;;;;;4992005;28;20461;-85
2022/06/25 06:58:58;;;;;;;5.60;2.00;;;23.70;71.60;;;;;;4991510;28;20453;-85
2022/06/25 07:01:33;;;;;;;5.13;1.70;;;23.70;68.90;;;;;;4992089;28;20881;-84
2022/06/25 07:04:02;;;;;;;10.87;2.00;;;23.80;69.00;;;;;;4992039;28;20477;-85
2022/06/25 07:06:39;;;;;;;11.27;2.07;;;23.90;70.10;;;;;;4991851;28;20489;-85
2022/06/25 07:09:29;;;;;;;6.30;2.40;;;24.20;69.10;;;;;;4991642;28;20548;-85
2022/06/25 07:12:32;;;;;;;5.40;2.00;;;24.30;69.40;;;;;;4992207;28;20493;-85
2022/06/25 07:15:16;;;;;;;7.50;1.90;;;24.00;63.80;;;;;;4989331;28;20457;-85
2022/06/25 07:21:10;;;;;;;6.13;1.90;;;24.50;62.90;;;;;;4991153;28;20462;-86
2022/06/25 07:23:58;;;;;;;4.57;1.40;;;25.10;66.50;;;;;;4996349;28;20981;-85
2022/06/25 07:26:31;;;;;;;5.30;1.87;;;25.10;58.10;;;;;;4995353;28;20428;-84
2022/06/25 07:29:04;;;;;;;6.50;1.80;;;25.10;55.60;;;;;;4995840;28;20499;-84
2022/06/25 07:32:17;;;;;;;4.30;1.70;;;25.20;58.00;;;;;;4995185;28;20501;-86
2022/06/25 07:41:35;;;;;;;7.13;1.80;;;25.80;49.60;;;;;;4894182;29;20948;-85
2022/06/25 07:44:02;;;;;;;4.60;1.57;;;25.80;44.80;;;;;;4988764;28;20456;-85
2022/06/25 07:46:29;;;;;;;6.20;1.77;;;26.00;43.00;;;;;;4996430;28;20481;-85
2022/06/25 07:48:55;;;;;;;5.87;1.57;;;26.20;41.20;;;;;;4996395;28;20452;-85
2022/06/25 07:54:07;;;;;;;5.70;1.47;;;26.90;39.50;;;;;;4996653;28;21004;-85
2022/06/25 07:56:34;;;;;;;5.47;1.33;;;26.70;35.50;;;;;;4996346;28;20844;-85
2022/06/25 07:59:01;;;;;;;5.80;1.70;;;26.10;36.60;;;;;;4995698;28;20454;-85
2022/06/25 08:01:28;;;;;;;6.97;1.67;;;25.40;34.60;;;;;;4996034;28;20462;-85
2022/06/25 08:03:54;;;;;;;4.40;1.20;;;25.60;38.80;;;;;;4996649;28;20824;-85
2022/06/25 08:06:21;;;;;;;6.47;1.57;;;25.80;39.70;;;;;;4996213;28;20454;-85
2022/06/25 08:08:48;;;;;;;4.50;1.20;;;25.90;37.70;;;;;;4995757;28;20489;-86
2022/06/25 08:11:16;;;;;;;6.60;1.50;;;26.40;40.80;;;;;;4995942;28;20487;-85
2022/06/25 08:13:43;;;;;;;4.53;1.33;;;26.90;38.40;;;;;;4996524;28;20474;-85
2022/06/25 08:16:10;;;;;;;4.23;1.40;;;26.80;32.10;;;;;;4996081;28;20454;-85
2022/06/25 08:18:38;;;;;;;4.37;1.30;;;26.80;34.50;;;;;;4995175;28;20846;-86
2022/06/25 08:21:06;;;;;;;4.57;1.47;;;27.10;30.40;;;;;;4995734;28;20485;-85
2022/06/25 08:23:32;;;;;;;5.67;2.20;;;26.90;27.70;;;;;;4995688;28;20474;-85
2022/06/25 08:25:59;;;;;;;6.33;1.40;;;27.00;30.40;;;;;;4995248;28;20457;-86
2022/06/25 08:28:27;;;;;;;4.73;1.20;;;26.50;29.00;;;;;;4995198;28;20835;-85
2022/06/25 08:30:54;;;;;;;6.23;1.13;;;26.20;29.00;;;;;;4995664;28;20489;-86
2022/06/25 08:33:21;;;;;;;5.70;1.53;;;26.30;31.60;;;;;;4995385;28;20846;-85
2022/06/25 08:35:47;;;;;;;4.20;1.20;;;26.10;28.60;;;;;;4996409;28;20461;-85
2022/06/25 08:38:16;;;;;;;4.20;1.20;;;26.10;28.70;;;;;;4996267;28;20825;-85
2022/06/25 08:40:43;;;;;;;6.20;1.13;;;26.30;29.80;;;;;;4996715;28;20454;-85
2022/06/25 08:43:19;;;;;;;5.20;1.30;;;26.20;26.60;;;;;;5013480;23;20502;-83
2022/06/25 08:45:51;;;;;;;8.70;1.60;;;26.20;27.00;;;;;;4980448;28;21058;-84
2022/06/25 08:51:32;;;;;;;7.13;1.20;;;26.60;27.30;;;;;;4998432;28;20470;-84
2022/06/25 08:54:12;;;;;;;7.10;1.53;;;26.30;28.10;;;;;;4999788;28;20470;-84
2022/06/25 08:56:39;;;;;;;5.50;1.13;;;26.40;27.20;;;;;;4999309;28;20453;-84
2022/06/25 08:59:06;;;;;;;4.20;1.20;;;26.90;27.20;;;;;;4998898;28;20458;-84
2022/06/25 09:01:34;;;;;;;8.43;1.60;;;26.90;26.30;;;;;;4999787;28;20449;-84
2022/06/25 09:04:01;;;;;;;9.43;2.07;;;27.70;24.80;;;;;;4999739;28;20891;-84
2022/06/25 09:06:32;;;;;;;7.00;1.47;;;27.10;24.40;;;;;;5000464;28;20424;-84
2022/06/25 09:09:10;;;;;;;7.57;1.60;;;27.70;24.80;;;;;;4998785;28;20457;-84
2022/06/25 09:11:55;;;;;;;6.80;1.60;;;27.80;23.50;;;;;;4999233;28;20812;-84
2022/06/25 09:14:24;;;;;;;4.43;1.07;;;28.00;23.90;;;;;;4999666;28;20474;-84
2022/06/25 09:17:04;;;;;;;6.80;1.90;;;28.00;24.80;;;;;;4999214;28;20465;-84
2022/06/25 09:19:33;;;;;;;5.53;1.80;;;28.10;24.40;;;;;;4999047;28;20479;-84
2022/06/25 09:22:01;;;;;;;6.47;1.40;;;28.10;21.30;;;;;;4999791;28;20462;-84
2022/06/25 09:24:42;;;;;;;5.23;1.20;;;28.10;19.30;;;;;;4999642;28;21073;-83
2022/06/25 09:27:10;;;;;;;9.00;2.20;;;27.90;20.30;;;;;;4999192;28;20429;-84
2022/06/25 09:29:39;;;;;;;7.27;1.40;;;27.40;20.70;;;;;;4998165;28;20474;-84
2022/06/25 09:32:07;;;;;;;5.50;1.40;;;27.10;22.40;;;;;;4999099;28;20457;-84
2022/06/25 09:34:34;;;;;;;5.60;1.30;;;26.60;24.20;;;;;;5018423;28;20479;-84
2022/06/25 09:37:22;;;;;;;4.30;1.30;;;25.90;25.30;;;;;;5019065;28;20448;-84
2022/06/25 09:39:51;;;;;;;5.17;1.30;;;26.70;23.40;;;;;;5018090;28;20456;-84
2022/06/25 09:42:26;;;;;;;4.20;1.37;;;26.90;21.50;;;;;;5018624;28;20449;-83
2022/06/25 09:45:00;;;;;;;5.47;1.37;;;27.50;22.70;;;;;;5017652;28;20485;-83
2022/06/25 09:47:28;;;;;;;5.07;1.30;;;28.90;21.50;;;;;;5018074;28;20449;-84
2022/06/25 09:50:11;;;;;;;6.00;1.53;;;29.70;16.50;;;;;;5017987;28;20481;-84
2022/06/25 09:52:39;;;;;;;4.00;1.13;;;29.80;10.80;;;;;;5017179;28;20453;-84
2022/06/25 09:55:07;;;;;;;4.30;1.33;;;30.10;8.40;;;;;;5018858;28;20453;-84
2022/06/25 09:57:35;;;;;;;8.13;1.40;;;30.60;6.60;;;;;;5018855;28;20460;-84
2022/06/25 10:00:02;;;;;;;7.33;1.80;;;30.60;6.10;;;;;;5017640;28;20540;-84
2022/06/25 10:02:32;;;;;;;5.70;1.70;;;30.10;5.70;;;;;;5018145;28;20461;-84
2022/06/25 10:05:02;;;;;;;4.73;1.13;;;30.20;10.10;;;;;;5018106;28;20431;-84
2022/06/25 10:10:18;;;;;;;4.50;1.20;;;29.10;11.10;;;;;;5017336;28;20596;-84
2022/06/25 10:12:46;;;;;;;4.37;1.10;;;30.10;9.10;;;;;;5018514;28;20953;-84
2022/06/25 10:15:15;;;;;;;4.53;1.30;;;31.00;6.50;;;;;;5018575;28;20449;-85
2022/06/25 10:17:44;;;;;;;7.03;1.73;;;31.30;3.00;;;;;;5018380;28;20457;-85
2022/06/25 10:20:11;;;;;;;7.90;1.40;;;30.30;1.80;;;;;;5017837;28;20427;-84
2022/06/25 10:22:39;;;;;;;5.10;1.33;;;29.70;3.40;;;;;;5017872;28;20921;-85
2022/06/25 10:25:11;;;;;;;4.53;1.30;;;29.70;3.90;;;;;;5017994;28;20423;-84
2022/06/25 10:27:45;;;;;;;4.30;1.10;;;29.40;5.30;;;;;;5017423;28;20549;-84
2022/06/25 10:30:14;;;;;;;6.13;1.90;;;28.90;5.60;;;;;;5016986;28;20486;-81
2022/06/25 10:32:49;;;;;;;5.90;1.87;;;28.70;7.20;;;;;;5016946;28;20427;-81
2022/06/25 10:35:29;;;;;;;5.03;1.30;;;29.70;6.40;;;;;;5016841;28;20579;-81
2022/06/25 10:38:04;;;;;;;5.30;1.30;;;29.10;6.40;;;;;;5016670;28;20427;-81
2022/06/25 10:40:32;;;;;;;5.60;1.27;;;29.10;7.00;;;;;;5015414;28;20822;-80
2022/06/25 10:43:02;;;;;;;6.53;1.57;;;28.80;5.90;;;;;;5016798;28;20481;-81
2022/06/25 10:45:56;;;;;;;6.73;1.67;;;28.60;7.00;;;;;;5017180;28;20457;-81
2022/06/25 10:48:24;;;;;;;4.20;1.20;;;27.90;8.20;;;;;;5015992;28;20491;-81
2022/06/25 10:50:52;;;;;;;6.83;1.40;;;28.20;10.80;;;;;;5016406;28;21019;-81
2022/06/25 10:53:20;;;;;;;4.40;1.10;;;29.00;9.40;;;;;;5017439;28;20480;-81
2022/06/25 10:56:17;;;;;;;6.40;1.97;;;28.40;10.00;;;;;;5016518;28;20459;-82
2022/06/25 10:58:46;;;;;;;4.20;1.20;;;29.00;8.70;;;;;;5017918;28;20541;-84
2022/06/25 11:01:28;;;;;;;4.83;1.40;;;29.60;9.20;;;;;;5018195;28;20449;-85
2022/06/25 11:03:59;;;;;;;7.23;1.37;;;30.30;4.60;;;;;;5017210;28;20506;-85
2022/06/25 11:06:29;;;;;;;6.63;1.20;;;29.70;3.80;;;;;;5017075;28;20864;-85
2022/06/25 11:09:03;;;;;;;6.13;1.10;;;29.20;5.40;;;;;;5016599;28;20463;-84
2022/06/25 11:11:31;;;;;;;10.10;1.60;;;28.80;5.50;;;;;;5016450;28;20473;-84
2022/06/25 11:14:00;;;;;;;6.70;2.43;;;28.80;10.20;;;;;;5017272;28;20480;-85
2022/06/25 11:16:27;;;;;;;4.50;1.10;;;28.40;7.00;;;;;;5017645;28;20809;-84
2022/06/25 11:19:00;;;;;;;4.40;0.90;;;28.50;10.00;;;;;;5016595;28;20460;-85
2022/06/25 11:21:29;;;;;;;5.67;1.80;;;28.30;6.40;;;;;;5017421;28;20453;-84
2022/06/25 11:24:12;;;;;;;4.27;1.10;;;28.40;9.00;;;;;;5017318;28;20853;-85
2022/06/25 11:29:27;;;;;;;4.80;1.20;;;28.10;6.00;;;;;;5016621;28;20440;-85
2022/06/25 11:31:54;;;;;;;9.50;1.80;;;28.00;8.90;;;;;;5016791;28;20477;-84
2022/06/25 11:34:25;;;;;;;4.40;1.33;;;28.30;9.90;;;;;;5016831;28;20472;-85
2022/06/25 11:37:09;;;;;;;4.43;1.10;;;28.50;11.10;;;;;;5016952;28;20449;-82
2022/06/25 11:39:38;;;;;;;6.73;1.40;;;28.60;10.10;;;;;;5016226;28;20456;-85
2022/06/25 11:42:08;;;;;;;6.13;1.67;;;29.30;9.20;;;;;;5018407;28;20449;-85
2022/06/25 11:44:40;;;;;;;4.73;1.10;;;29.10;6.00;;;;;;5018089;28;20510;-83
2022/06/25 11:47:07;;;;;;;5.20;1.50;;;29.30;10.50;;;;;;5017051;28;20449;-84
2022/06/25 11:49:38;;;;;;;5.10;1.53;;;29.60;8.50;;;;;;5015970;28;20453;-85
2022/06/25 11:52:06;;;;;;;6.10;1.40;;;28.90;5.50;;;;;;5016938;28;20476;-85
2022/06/25 11:54:36;;;;;;;4.60;1.60;;;28.50;8.10;;;;;;5017764;28;20503;-84
2022/06/25 11:57:04;;;;;;;4.60;1.30;;;28.10;9.90;;;;;;5018293;28;20479;-85
2022/06/25 11:59:32;;;;;;;4.00;1.10;;;28.10;9.80;;;;;;5017282;28;20449;-84
2022/06/25 12:01:59;;;;;;;4.43;1.20;;;28.30;11.00;;;;;;5018505;28;20451;-84
2022/06/25 12:04:27;;;;;;;4.50;1.10;;;28.20;12.60;;;;;;5020266;28;20480;-84
2022/06/25 12:06:55;;;;;;;7.40;1.27;;;27.80;9.70;;;;;;5032194;28;20449;-84
2022/06/25 12:09:23;;;;;;;6.87;1.50;;;27.70;11.90;;;;;;5033908;28;20456;-84
2022/06/25 12:11:53;;;;;;;6.03;1.50;;;27.40;10.40;;;;;;5035779;28;20431;-84
2022/06/25 12:14:21;;;;;;;4.40;1.40;;;27.50;12.80;;;;;;5036395;28;20486;-83
2022/06/25 12:16:49;;;;;;;4.70;1.63;;;27.70;13.90;;;;;;5024337;28;20461;-83
2022/06/25 12:19:16;;;;;;;8.87;1.73;;;27.30;10.60;;;;;;5020331;28;20833;-83
2022/06/25 12:21:43;;;;;;;6.70;1.70;;;27.40;12.90;;;;;;5019039;28;20444;-83
2022/06/25 12:24:14;;;;;;;6.90;1.40;;;27.10;11.90;;;;;;5020640;28;20531;-83
2022/06/25 12:26:43;;;;;;;4.63;1.53;;;27.00;14.70;;;;;;5020528;28;20962;-83
2022/06/25 12:29:12;;;;;;;5.93;1.67;;;26.90;16.50;;;;;;5019907;28;21104;-84
2022/06/25 12:31:40;;;;;;;5.50;1.40;;;26.80;14.30;;;;;;5019932;28;20499;-84
2022/06/25 12:34:08;;;;;;;5.63;1.70;;;26.80;15.20;;;;;;5020194;28;20843;-84
2022/06/25 12:36:37;;;;;;;4.53;1.40;;;27.00;16.30;;;;;;5020230;28;20828;-84
2022/06/25 12:39:30;;;;;;;4.30;1.40;;;26.90;12.80;;;;;;5019427;28;20449;-84
2022/06/25 12:41:57;;;;;;;4.27;1.40;;;27.40;15.90;;;;;;5019946;28;21117;-84
2022/06/25 12:44:23;;;;;;;5.37;1.60;;;27.90;13.40;;;;;;5021533;28;20483;-84
2022/06/25 12:47:01;;;;;;;5.13;1.50;;;28.30;12.90;;;;;;5020134;28;20453;-84
2022/06/25 12:49:40;;;;;;;5.13;1.37;;;28.40;11.70;;;;;;5019839;28;20548;-84
2022/06/25 12:52:07;;;;;;;5.40;1.30;;;28.50;10.00;;;;;;5020042;28;20480;-83
2022/06/25 12:54:41;;;;;;;92.00;29.43;;;28.30;10.00;;;;;;5020978;28;20484;-84
2022/06/25 12:57:08;;;;;;;18.23;5.53;;;27.90;9.70;;;;;;5019763;28;20455;-84
2022/06/25 12:59:35;;;;;;;5.80;1.57;;;27.90;11.10;;;;;;5018768;28;20459;-82
2022/06/25 13:02:02;;;;;;;5.13;1.50;;;27.80;12.10;;;;;;5019036;28;20449;-81
2022/06/25 13:04:28;;;;;;;4.47;1.30;;;27.90;11.80;;;;;;5018306;28;20472;-83
2022/06/25 13:06:55;;;;;;;5.10;1.43;;;27.80;10.60;;;;;;5018905;28;20461;-82
2022/06/25 13:09:22;;;;;;;8.67;1.80;;;27.60;11.30;;;;;;5018669;28;20950;-86
2022/06/25 13:11:50;;;;;;;8.63;1.67;;;27.50;14.20;;;;;;5019376;28;20483;-87
2022/06/25 13:14:17;;;;;;;4.30;1.57;;;27.50;15.50;;;;;;5013762;28;20860;-87
2022/06/25 13:16:43;;;;;;;6.43;1.73;;;27.30;15.60;;;;;;5021422;28;20463;-88